createdAt,value
2023-01-08T02:04:33.782Z,8.10
2023-01-08T02:07:05.245Z,10.10
2023-01-08T02:09:41.555Z,10.00
2023-01-08T02:12:18.450Z,10.10
2023-01-08T02:15:00.676Z,10.10
2023-01-08T02:17:34.735Z,10.00
2023-01-08T02:20:10.965Z,10.10
2023-01-08T02:22:50.997Z,10.00
2023-01-08T02:25:30.129Z,10.00
2023-01-08T02:28:01.761Z,10.10
2023-01-08T02:30:29.423Z,10.20
2023-01-08T02:32:55.989Z,10.00
2023-01-08T02:35:22.670Z,10.00
2023-01-08T02:37:49.306Z,10.00
2023-01-08T02:40:25.212Z,10.50
2023-01-08T02:42:58.184Z,10.10
2023-01-08T02:45:33.400Z,10.00
2023-01-08T02:48:06.355Z,9.70
2023-01-08T02:50:38.570Z,10.10
2023-01-08T02:53:11.352Z,10.00
2023-01-08T02:55:40.948Z,10.00
2023-01-08T02:58:08.007Z,9.90
2023-01-08T03:00:35.568Z,9.90
2023-01-08T03:03:08.612Z,10.00
2023-01-08T03:05:36.617Z,10.10
2023-01-08T03:08:03.656Z,10.00
2023-01-08T03:10:31.971Z,10.00
2023-01-08T03:13:02.109Z,11.00
2023-01-08T03:15:33.502Z,10.90
2023-01-08T03:18:05.779Z,10.30
2023-01-08T03:20:35.244Z,10.80
2023-01-08T03:23:03.504Z,10.10
2023-01-08T03:25:30.316Z,10.10
2023-01-08T03:28:00.868Z,10.10
2023-01-08T03:30:29.969Z,10.10
2023-01-08T03:32:58.724Z,10.10
2023-01-08T03:35:27.294Z,10.10
2023-01-08T03:37:59.729Z,10.10
2023-01-08T03:40:34.101Z,10.10
2023-01-08T03:43:00.656Z,10.30
2023-01-08T03:45:29.502Z,10.20
2023-01-08T03:47:57.700Z,10.20
2023-01-08T03:50:27.754Z,10.20
2023-01-08T03:52:54.327Z,10.00
2023-01-08T03:55:20.986Z,9.90
2023-01-08T03:57:47.487Z,9.90
2023-01-08T04:00:15.043Z,9.90
2023-01-08T04:02:41.599Z,9.90
2023-01-08T04:05:09.056Z,9.90
2023-01-08T04:07:36.351Z,9.80
2023-01-08T04:10:03.013Z,9.70
2023-01-08T04:12:29.501Z,9.70
2023-01-08T04:14:56.044Z,9.70
2023-01-08T04:17:22.571Z,9.70
2023-01-08T04:19:49.073Z,9.70
2023-01-08T04:22:15.652Z,10.20
2023-01-08T04:24:42.795Z,9.70
2023-01-08T04:27:09.326Z,10.60
2023-01-08T04:29:35.870Z,9.70
2023-01-08T04:32:02.460Z,9.70
2023-01-08T04:34:29.033Z,9.70
2023-01-08T04:36:56.094Z,9.70
2023-01-08T04:39:22.657Z,9.60
2023-01-08T04:41:49.832Z,9.60
2023-01-08T04:44:16.377Z,9.80
2023-01-08T04:46:43.030Z,9.40
2023-01-08T04:49:10.409Z,9.40
2023-01-08T04:51:36.942Z,9.40
2023-01-08T04:54:03.530Z,9.90
2023-01-08T04:56:30.499Z,9.50
2023-01-08T04:58:58.252Z,9.50
2023-01-08T05:01:26.671Z,9.50
2023-01-08T05:03:54.440Z,9.50
2023-01-08T05:06:21.034Z,9.50
2023-01-08T05:08:47.747Z,9.50
2023-01-08T05:11:14.394Z,10.00
2023-01-08T05:13:41.056Z,9.60
2023-01-08T05:16:08.445Z,9.50
2023-01-08T05:18:35.018Z,9.40
2023-01-08T05:21:02.628Z,9.50
2023-01-08T05:23:29.251Z,9.80
2023-01-08T05:25:57.697Z,9.50
2023-01-08T05:28:24.293Z,9.50
2023-01-08T05:30:50.882Z,9.50
2023-01-08T05:33:18.164Z,9.50
2023-01-08T05:35:44.897Z,9.50
2023-01-08T05:38:11.527Z,9.70
2023-01-08T05:40:38.166Z,9.60
2023-01-08T05:43:04.763Z,9.70
2023-01-08T05:45:31.889Z,9.70
2023-01-08T05:47:58.789Z,9.50
2023-01-08T05:50:26.079Z,9.60
2023-01-08T05:52:52.635Z,9.60
2023-01-08T05:55:19.165Z,9.50
2023-01-08T05:57:46.012Z,9.90
2023-01-08T06:00:14.072Z,9.60
2023-01-08T06:02:40.623Z,9.50
2023-01-08T06:05:07.568Z,9.60
2023-01-08T06:07:34.695Z,9.50
2023-01-08T06:10:01.219Z,9.50
2023-01-08T06:12:27.724Z,9.60
2023-01-08T06:14:54.226Z,9.60
2023-01-08T06:17:20.723Z,9.50
2023-01-08T06:19:47.603Z,10.00
2023-01-08T06:22:14.152Z,9.60
2023-01-08T06:24:41.305Z,9.60
2023-01-08T06:27:07.821Z,9.60
2023-01-08T06:29:34.308Z,9.60
2023-01-08T06:32:00.829Z,9.50
2023-01-08T06:34:27.369Z,9.30
2023-01-08T06:36:53.856Z,9.60
2023-01-08T06:39:20.392Z,9.20
2023-01-08T06:41:47.530Z,9.10
2023-01-08T06:44:14.029Z,9.50
2023-01-08T06:46:40.643Z,8.90
2023-01-08T06:49:07.756Z,9.00
2023-01-08T06:51:34.533Z,8.80
2023-01-08T06:54:01.268Z,8.90
2023-01-08T06:56:27.762Z,8.90
2023-01-08T06:58:54.931Z,8.70
2023-01-08T07:01:22.224Z,8.60
2023-01-08T07:03:49.092Z,8.80
2023-01-08T07:06:17.841Z,8.50
2023-01-08T07:08:44.971Z,8.60
2023-01-08T07:11:11.841Z,8.60
2023-01-08T07:13:38.360Z,8.50
2023-01-08T07:16:06.688Z,8.90
2023-01-08T07:18:33.285Z,8.50
2023-01-08T07:21:00.013Z,8.50
2023-01-08T07:23:26.521Z,8.40
2023-01-08T07:25:53.027Z,8.40
2023-01-08T07:28:19.542Z,8.70
2023-01-08T07:30:46.262Z,8.70
2023-01-08T07:33:13.410Z,8.50
2023-01-08T07:35:40.031Z,8.50
2023-01-08T07:38:06.640Z,8.50
2023-01-08T07:40:33.665Z,9.40
2023-01-08T07:43:01.246Z,9.10
2023-01-08T07:45:28.577Z,8.60
2023-01-08T07:47:57.146Z,9.00
2023-01-08T07:50:24.983Z,8.30
2023-01-08T07:52:51.512Z,8.30
2023-01-08T07:55:18.052Z,8.10
2023-01-08T07:57:44.621Z,8.30
2023-01-08T08:00:12.451Z,8.90
2023-01-08T08:02:39.099Z,8.00
2023-01-08T08:05:06.157Z,8.00
2023-01-08T08:07:33.795Z,7.90
2023-01-08T08:10:00.295Z,8.30
2023-01-08T08:12:26.910Z,7.80
2023-01-08T08:14:53.422Z,7.80
2023-01-08T08:17:19.946Z,7.70
2023-01-08T08:19:46.441Z,7.70
2023-01-08T08:22:13.463Z,7.90
2023-01-08T08:24:40.690Z,7.60
2023-01-08T08:27:07.233Z,7.60
2023-01-08T08:29:33.733Z,7.60
2023-01-08T16:00:26.286Z,8.10
2023-01-08T16:02:54.313Z,8.20
2023-01-08T16:05:23.226Z,8.20
2023-01-08T16:07:49.767Z,8.10
2023-01-08T16:10:17.451Z,8.10
2023-01-08T16:12:44.341Z,8.00
2023-01-08T16:15:12.176Z,8.00
2023-01-08T16:17:38.796Z,8.40
2023-01-08T16:20:07.701Z,8.00
2023-01-08T16:22:34.372Z,8.00
2023-01-08T16:25:01.036Z,8.10
2023-01-08T16:27:27.995Z,8.40
2023-01-08T16:29:54.513Z,8.30
2023-01-08T16:32:21.063Z,8.80
2023-01-08T16:34:47.575Z,8.40
2023-01-08T16:37:14.872Z,9.10
2023-01-08T16:39:41.371Z,8.70
2023-01-08T16:42:08.829Z,8.70
2023-01-08T16:44:36.165Z,8.70
2023-01-08T16:47:02.825Z,8.70
2023-01-08T16:49:29.613Z,8.70
2023-01-08T16:51:56.099Z,8.60
2023-01-08T16:54:23.300Z,8.80
2023-01-08T16:56:51.508Z,8.50
2023-01-08T16:59:23.353Z,9.30
2023-01-08T17:01:50.460Z,8.40
2023-01-08T17:04:17.029Z,8.40
2023-01-08T17:06:43.561Z,8.30
2023-01-08T17:09:11.634Z,8.30
2023-01-08T17:11:39.072Z,8.30
2023-01-08T17:14:05.658Z,8.90
2023-01-08T17:16:32.408Z,8.20
2023-01-08T17:18:58.974Z,8.20
2023-01-08T17:21:25.530Z,8.20
2023-01-08T17:23:52.047Z,8.00
2023-01-08T17:26:18.572Z,8.20
2023-01-08T17:28:46.403Z,8.10
2023-01-08T17:31:14.915Z,7.90
2023-01-08T17:33:41.686Z,8.00
2023-01-08T17:36:12.504Z,7.80
2023-01-08T17:38:39.060Z,7.70
2023-01-08T17:41:07.743Z,8.10
2023-01-08T17:43:34.777Z,7.60
2023-01-08T17:46:03.004Z,7.60
2023-01-08T17:48:29.605Z,7.60
2023-01-08T17:50:56.377Z,7.50
2023-01-08T17:53:22.880Z,7.50
2023-01-08T17:55:49.391Z,7.50
2023-01-08T17:58:15.905Z,7.50
2023-01-08T18:00:42.432Z,7.30
2023-01-08T18:03:10.545Z,7.40
2023-01-08T18:05:37.108Z,7.30
2023-01-08T18:08:04.019Z,7.30
2023-01-08T18:10:30.537Z,7.30
2023-01-08T18:12:57.021Z,7.30
2023-01-08T18:15:23.531Z,7.60
2023-01-08T18:17:50.404Z,7.10
2023-01-08T18:20:17.790Z,7.40
2023-01-08T18:22:45.345Z,7.20
2023-01-08T18:25:12.089Z,7.50
2023-01-08T18:27:38.621Z,7.20
2023-01-08T18:30:06.480Z,7.20
2023-01-08T18:32:34.241Z,7.20
2023-01-08T18:35:02.888Z,7.40
2023-01-08T18:37:31.327Z,7.20
2023-01-08T18:39:58.003Z,7.20
2023-01-08T18:42:27.290Z,7.70
2023-01-08T18:44:55.133Z,7.20
2023-01-08T18:47:22.780Z,7.50
2023-01-08T18:49:51.290Z,8.00
2023-01-08T18:52:17.877Z,7.20
2023-01-08T18:54:45.021Z,7.10
2023-01-08T18:57:11.512Z,7.00
2023-01-08T18:59:38.275Z,7.50
2023-01-08T19:02:05.018Z,7.00
2023-01-08T19:04:31.629Z,7.30
2023-01-08T19:06:58.145Z,7.20
2023-01-08T19:09:24.674Z,7.20
2023-01-08T19:11:51.856Z,7.20
2023-01-08T19:14:18.364Z,7.40
2023-01-08T19:16:50.318Z,7.20
2023-01-08T19:19:17.479Z,7.20
2023-01-08T19:21:44.021Z,7.20
2023-01-08T19:24:10.629Z,7.30
2023-01-08T19:26:37.911Z,7.30
2023-01-08T19:29:10.447Z,7.30
2023-01-08T19:31:37.062Z,7.30
2023-01-08T19:34:04.250Z,7.50
2023-01-08T19:36:39.808Z,8.10
2023-01-08T19:39:06.754Z,7.70
2023-01-08T19:41:51.561Z,7.30
2023-01-08T19:44:44.657Z,7.40
2023-01-08T19:47:11.237Z,7.30
2023-01-08T19:49:40.639Z,7.30
2023-01-08T19:52:07.144Z,7.20
2023-01-08T19:54:33.657Z,7.30
2023-01-08T19:57:00.155Z,7.70
2023-01-08T19:59:26.682Z,7.20
2023-01-08T20:01:53.908Z,7.20
2023-01-08T20:04:20.958Z,8.20
2023-01-08T20:06:47.653Z,7.80
2023-01-08T20:09:14.186Z,7.30
2023-01-08T20:11:40.701Z,8.10
2023-01-08T20:14:07.217Z,7.40
2023-01-08T20:16:33.784Z,7.40
2023-01-08T20:19:03.539Z,7.40
2023-01-08T20:21:32.246Z,7.30
2023-01-08T20:24:01.798Z,7.30
2023-01-08T20:26:30.843Z,7.30
2023-01-08T20:28:57.904Z,7.30
2023-01-08T20:31:28.529Z,7.40
2023-01-08T20:33:56.268Z,8.00
2023-01-08T20:36:26.835Z,7.50
2023-01-08T20:38:54.924Z,7.60
2023-01-08T20:41:21.603Z,8.50
2023-01-08T20:43:48.310Z,7.70
2023-01-08T20:46:15.044Z,7.80
2023-01-08T20:48:47.854Z,7.70
2023-01-08T20:51:15.027Z,8.00
2023-01-08T20:53:42.205Z,8.20
2023-01-08T20:56:10.491Z,7.90
2023-01-08T20:58:38.758Z,8.60
2023-01-08T21:01:07.551Z,8.10
2023-01-08T21:03:36.031Z,7.90
2023-01-08T21:06:05.190Z,8.00
2023-01-08T21:08:31.773Z,8.00
2023-01-08T21:10:59.784Z,8.80
2023-01-08T21:13:26.319Z,8.40
2023-01-08T21:15:55.375Z,8.00
2023-01-08T21:18:23.563Z,8.80
2023-01-08T21:20:50.075Z,8.80
2023-01-08T21:23:16.586Z,8.00
2023-01-08T21:25:43.120Z,8.00
2023-01-08T21:28:10.283Z,8.60
2023-01-08T21:30:36.803Z,8.60
2023-01-08T21:33:03.936Z,8.70
2023-01-08T21:35:33.009Z,8.30
2023-01-08T21:37:59.528Z,8.10
2023-01-08T21:40:26.056Z,8.10
2023-01-08T21:43:10.749Z,8.20
2023-01-08T21:45:37.900Z,8.30
2023-01-08T21:48:04.977Z,9.10
2023-01-08T21:50:31.505Z,8.30
2023-01-08T21:53:16.084Z,8.30
2023-01-08T21:55:42.966Z,8.40
2023-01-08T21:58:09.517Z,8.40
2023-01-08T22:00:37.138Z,8.40
2023-01-08T22:03:04.723Z,8.30
2023-01-08T22:05:31.265Z,8.30
2023-01-08T22:07:57.770Z,8.40
2023-01-08T22:10:24.277Z,8.40
2023-01-08T22:12:50.789Z,8.40
2023-01-08T22:15:18.555Z,9.00
2023-01-08T22:17:45.070Z,8.40
2023-01-08T22:20:12.781Z,8.40
2023-01-08T22:22:40.427Z,8.40
2023-01-08T22:25:08.405Z,8.40
2023-01-08T22:27:34.956Z,8.40
2023-01-08T22:30:01.504Z,8.40
2023-01-08T22:32:28.012Z,8.40
2023-01-08T22:34:54.541Z,8.50
2023-01-08T22:37:21.781Z,8.40
2023-01-08T22:39:48.441Z,9.00
2023-01-08T22:42:15.411Z,8.50
2023-01-08T22:44:42.139Z,8.70
2023-01-08T22:47:09.244Z,8.50
2023-01-08T22:49:36.295Z,8.60
2023-01-08T22:52:03.090Z,8.50
2023-01-08T22:54:30.257Z,8.50
2023-01-08T22:56:56.789Z,8.40
2023-01-08T22:59:23.305Z,8.50
2023-01-08T23:01:49.929Z,8.40
2023-01-08T23:04:16.623Z,8.40
2023-01-08T23:06:43.215Z,8.60
2023-01-08T23:09:09.742Z,8.50
2023-01-08T23:11:36.924Z,8.40
2023-01-08T23:14:03.531Z,8.30
2023-01-08T23:16:30.207Z,8.40
2023-01-08T23:18:57.109Z,8.30
2023-01-08T23:21:25.871Z,8.10
2023-01-08T23:23:52.653Z,8.20
2023-01-08T23:26:21.746Z,8.70
2023-01-08T23:28:50.220Z,8.20
2023-01-08T23:31:18.675Z,8.80
2023-01-08T23:33:45.563Z,8.90
2023-01-08T23:36:17.350Z,8.10
2023-01-08T23:38:44.604Z,8.00
2023-01-08T23:41:11.210Z,8.00
2023-01-08T23:43:37.727Z,8.00
2023-01-08T23:46:05.905Z,7.90
2023-01-08T23:48:32.772Z,7.90
2023-01-08T23:50:59.339Z,8.10
2023-01-08T23:53:26.213Z,8.00
2023-01-08T23:55:52.748Z,8.80
2023-01-08T23:58:19.301Z,8.20
